This is the latest recevied weather packets stored in our database for station/object N3FU-13. If no packets are shown the sender has not sent any weather packets the latest 10 day(s).
| Time | Temp. | Humidity | Pressure | Rain* | Wind** | Luminosity | Snow |
|---|---|---|---|---|---|---|---|
| 1778197319 | 27.22° C | 77% | 1014.2 hPa | 0 mm | - | - | - |
| 1778196419 | 27.78° C | 74% | 1014.2 hPa | 0 mm | - | - | - |
| 1778195519 | 28.33° C | 74% | 1014 hPa | 0 mm | - | - | - |
| 1778194619 | 28.89° C | 71% | 1014 hPa | 0 mm | - | - | - |
| 1778193720 | 29.44° C | 68% | 1014 hPa | 0 mm | - | - | - |
| 1778192820 | 30° C | 68% | 1014 hPa | 0 mm | - | - | - |
| 1778191919 | 30.56° C | 65% | 1014 hPa | 0 mm | - | - | - |
| 1778191020 | 31.11° C | 63% | 1014.1 hPa | 0 mm | - | - | - |
| 1778190120 | 31.67° C | 60% | 1014.1 hPa | 0 mm | - | - | - |
| 1778189220 | 31.67° C | 64% | 1014.1 hPa | 0 mm | - | - | - |
| 1778188320 | 31.67° C | 61% | 1014.2 hPa | 0 mm | - | - | - |
| 1778187420 | 32.22° C | 60% | 1014.3 hPa | 0 mm | - | - | - |
| 1778186520 | 32.22° C | 62% | 1014.3 hPa | 0 mm | - | - | - |
| 1778185620 | 32.78° C | 59% | 1014.4 hPa | 0 mm | - | - | - |
| 1778184720 | 32.78° C | 56% | 1014.4 hPa | 0 mm | - | - | - |
| 1778183820 | 32.22° C | 60% | 1014.5 hPa | 0 mm | - | - | - |
| 1778182920 | 32.22° C | 64% | 1014.7 hPa | 0 mm | - | - | - |
| 1778182020 | 32.22° C | 64% | 1015 hPa | 0 mm | - | - | - |
| 1778181120 | 31.67° C | 66% | 1015.1 hPa | 0 mm | - | - | - |
| 1778180220 | 31.67° C | 67% | 1015.3 hPa | 0 mm | - | - | - |
| 1778179320 | 31.67° C | 67% | 1015.5 hPa | 0 mm | - | - | - |
| 1778178420 | 31.67° C | 69% | 1015.6 hPa | 0 mm | - | - | - |
| 1778177520 | 31.11° C | 68% | 1015.8 hPa | 0 mm | - | - | - |
| 1778176620 | 31.11° C | 68% | 1015.8 hPa | 0 mm | - | - | - |
| 1778175720 | 30.56° C | 69% | 1015.8 hPa | 0 mm | - | - | - |
* Rain latest hour (hover to see other rain measurements)
** Current wind speed in m/s (hover to see current wind gust speed)